Asian Empire — 3FQF8 — position and weather

sailwx.info

Track history (hours):
 
Tides and Currents Weather Stations Pressure Air Temp Water Temp Dewpoint Dewpoint Depression Visibility Wind Speed Wind Dir Waves Ship Positions

Asian Empire

Last reported at 2017-Jun-26 17:04 UTC. Time now 2017-Jun-28 07:17 UTC.
Position N 32°24' E 015°16'.

Length 229 m; draft 8.2 m.

Type: Cargo ship. MMSI: 245087096.

Date/timePositionNaut miles runAvg speedWind from/ knotsBaromVisibWave heightAir tempDewpointWater temp
2017-Jun-26 17:04N 32°24' E 015°16'0 0.1
2017-Jun-26 16:58N 32°24' E 015°16'0 0.0
2017-Jun-26 16:25N 32°24' E 015°16'0 0.0
2017-Jun-26 15:55N 32°24' E 015°16'0 0.0
2017-Jun-26 15:28N 32°24' E 015°16'0 0.0
2017-Jun-26 14:58N 32°24' E 015°16'0 0.0
2017-Jun-26 14:28N 32°24' E 015°16'0 0.0
2017-Jun-26 13:28N 32°24' E 015°16'0 0.0
2017-Jun-26 12:58N 32°24' E 015°16'0 0.0
2017-Jun-26 12:28N 32°24' E 015°16'0 0.0
2017-Jun-26 11:58N 32°24' E 015°16'0 0.0
2017-Jun-26 11:04N 32°24' E 015°16'0 0.0
2017-Jun-26 10:58N 32°24' E 015°16'0 0.0
2017-Jun-26 10:25N 32°24' E 015°16'0 0.0
2017-Jun-26 09:58N 32°24' E 015°16'0 0.0
2017-Jun-26 09:01N 32°24' E 015°16'0 0.0
2017-Jun-26 08:58N 32°24' E 015°16'0 0.0
2017-Jun-26 08:28N 32°24' E 015°16'0 0.0
2017-Jun-26 06:29N 32°24' E 015°16'3 5.6
2017-Jun-26 05:59N 32°26' E 015°17'612.4
2017-Jun-26 05:30N 32°32' E 015°16'612.5
2017-Jun-26 05:00N 32°38' E 015°15'612.3
2017-Jun-26 04:30N 32°44' E 015°14'612.3
2017-Jun-26 04:00N 32°51' E 015°14'612.2
2017-Jun-26 03:30N 32°57' E 015°13'612.2
2017-Jun-26 03:00N 33°03' E 015°12'612.3
2017-Jun-26 02:30N 33°09' E 015°11'612.2
2017-Jun-26 02:00N 33°15' E 015°10'612.2
2017-Jun-26 01:30N 33°21' E 015°09'612.2
2017-Jun-26 01:00N 33°27' E 015°08'612.2
2017-Jun-26 00:30N 33°33' E 015°07'612.4
2017-Jun-26 00:00N 33°39' E 015°06'612.4
2017-Jun-25 23:30N 33°45' E 015°05'612.5
2017-Jun-25 23:00N 33°51' E 015°04'612.5
2017-Jun-25 22:30N 33°58' E 015°03'612.5
2017-Jun-25 22:00N 34°04' E 015°02'612.5
2017-Jun-25 21:30N 34°10' E 015°01'612.6
2017-Jun-25 21:00N 34°16' E 014°60'612.5
2017-Jun-25 20:30N 34°22' E 014°59'612.6
2017-Jun-25 20:00N 34°29' E 014°57'612.8
2017-Jun-25 19:30N 34°35' E 014°56'613.0
2017-Jun-25 19:00N 34°41' E 014°56'713.1
2017-Jun-25 18:30N 34°48' E 014°55'612.7
2017-Jun-25 18:00N 34°54' E 014°54'612.6
2017-Jun-25 17:30N 35°00' E 014°53'612.4
2017-Jun-25 17:00N 35°07' E 014°52'612.3
2017-Jun-25 16:30N 35°13' E 014°51'612.5
2017-Jun-25 16:00N 35°19' E 014°50'612.6
2017-Jun-25 15:30N 35°25' E 014°50'612.5
2017-Jun-25 15:00N 35°31' E 014°49'612.5
2017-Jun-25 14:30N 35°38' E 014°48'1212.5
2017-Jun-25 13:30N 35°50' E 014°46'2 4.2
2017-Jun-25 13:00N 35°52' E 014°45'0 0.1
2017-Jun-25 12:29N 35°52' E 014°45'0 0.0
2017-Jun-25 11:59N 35°52' E 014°45'0 0.0
2017-Jun-25 11:26N 35°52' E 014°45'0 0.0
2017-Jun-25 10:59N 35°52' E 014°45'0 0.0
2017-Jun-25 10:29N 35°52' E 014°45'0 0.0
2017-Jun-25 09:59N 35°52' E 014°45'0 0.0
2017-Jun-25 09:29N 35°52' E 014°45'0 0.0
2017-Jun-25 08:59N 35°52' E 014°45'0 0.0
2017-Jun-25 08:29N 35°52' E 014°45'0 0.0
2017-Jun-25 07:59N 35°52' E 014°45'0 0.0
2017-Jun-25 07:29N 35°52' E 014°45'0 0.1
2017-Jun-25 06:59N 35°52' E 014°45'0 0.0
2017-Jun-25 06:29N 35°52' E 014°45'0 0.0
2017-Jun-25 05:59N 35°52' E 014°45'0 0.0
2017-Jun-25 05:29N 35°52' E 014°45'0 0.1
2017-Jun-25 04:59N 35°52' E 014°45'0 0.0
2017-Jun-25 04:26N 35°52' E 014°45'0 0.7
2017-Jun-25 04:00N 35°52' E 014°44'611.5
2017-Jun-25 03:30N 35°56' E 014°39'713.0
2017-Jun-25 03:00N 36°01' E 014°35'612.4
2017-Jun-25 02:30N 36°05' E 014°28'612.7
2017-Jun-25 02:00N 36°07' E 014°21'612.7
2017-Jun-25 01:31N 36°10' E 014°14'612.7
2017-Jun-25 01:00N 36°12' E 014°07'612.9
2017-Jun-25 00:30N 36°15' E 013°60'612.9
2017-Jun-25 00:00N 36°18' E 013°52'612.8
2017-Jun-24 23:31N 36°21' E 013°45'612.8
2017-Jun-24 23:01N 36°24' E 013°38'612.6
2017-Jun-24 22:30N 36°26' E 013°31'612.5
2017-Jun-24 22:00N 36°29' E 013°24'612.4
2017-Jun-24 21:31N 36°31' E 013°17'612.1
2017-Jun-24 21:00N 36°33' E 013°10'612.2
2017-Jun-24 20:31N 36°36' E 013°03'612.3
2017-Jun-24 20:01N 36°39' E 012°56'612.5
2017-Jun-24 19:30N 36°42' E 012°49'612.6
2017-Jun-24 19:00N 36°45' E 012°42'612.5
2017-Jun-24 18:30N 36°48' E 012°35'713.0
2017-Jun-24 18:00N 36°51' E 012°28'713.3
2017-Jun-24 17:30N 36°54' E 012°21'713.0
2017-Jun-24 17:00N 36°57' E 012°13'612.5
2017-Jun-24 16:30N 36°60' E 012°07'612.7
2017-Jun-24 16:00N 37°02' E 011°59'612.6
2017-Jun-24 15:30N 37°05' E 011°52'612.7
2017-Jun-24 15:00N 37°08' E 011°45'1312.7
2017-Jun-24 14:00N 37°14' E 011°31'612.7
2017-Jun-24 13:30N 37°17' E 011°24'612.7
2017-Jun-24 12:59N 37°20' E 011°17'613.0
2017-Jun-24 12:30N 37°22' E 011°09'713.2
2017-Jun-24 12:00N 37°25' E 011°02'713.3
2017-Jun-24 11:30N 37°29' E 010°55'713.3
2017-Jun-24 11:00N 37°33' E 010°48'4513.2
2017-Jun-24 07:34N 37°48' E 009°54'113.4
2017-Jun-24 07:30N 37°48' E 009°53'713.4
2017-Jun-24 07:00N 37°50' E 009°45'713.4
2017-Jun-24 06:30N 37°51' E 009°36'713.5
2017-Jun-24 06:00N 37°52' E 009°28'713.5
2017-Jun-24 05:30N 37°54' E 009°20'713.6
2017-Jun-24 04:59N 37°55' E 009°11'4013.6
2017-Jun-24 02:01N 38°04' E 008°21'213.4
2017-Jun-24 01:50N 38°05' E 008°18'12012.7
2017-Jun-23 16:22N 38°29' E 005°49'5612.3
2017-Jun-23 11:48N 38°41' E 004°38'312.3
2017-Jun-23 11:31N 38°42' E 004°34'612.3
2017-Jun-23 11:00N 38°43' E 004°26'712.3
2017-Jun-23 10:27N 38°45' E 004°18'712.5
2017-Jun-23 09:54N 38°47' E 004°09'512.6
2017-Jun-23 09:30N 38°48' E 004°03'612.6
2017-Jun-23 09:00N 38°49' E 003°55'612.6
2017-Jun-23 08:30N 38°50' E 003°47'612.5
2017-Jun-23 08:00N 38°51' E 003°39'612.5
2017-Jun-23 07:30N 38°53' E 003°32'612.5
2017-Jun-23 07:00N 38°54' E 003°24'612.5
2017-Jun-23 06:30N 38°55' E 003°16'612.7
2017-Jun-23 06:00N 38°57' E 003°08'612.7
2017-Jun-23 05:30N 38°58' E 002°60'612.4
2017-Jun-23 05:00N 38°59' E 002°52'612.3
2017-Jun-23 04:30N 39°01' E 002°44'612.3
2017-Jun-23 04:01N 39°02' E 002°37'612.6
2017-Jun-23 03:30N 39°03' E 002°29'612.5
2017-Jun-23 03:00N 39°04' E 002°21'612.3
2017-Jun-23 02:30N 39°06' E 002°13'612.6
2017-Jun-23 02:00N 39°07' E 002°05'713.1
2017-Jun-23 01:30N 39°08' E 001°57'713.1
2017-Jun-23 01:00N 39°10' E 001°49'612.9
2017-Jun-23 00:30N 39°13' E 001°41'612.5
2017-Jun-22 23:59N 39°16' E 001°34'612.2
2017-Jun-22 23:30N 39°18' E 001°27'3812.2
2017-Jun-22 20:23N 39°37' E 000°44'612.1
2017-Jun-22 19:52N 39°40' E 000°37'611.9
2017-Jun-22 19:22N 39°43' E 000°31'26 1.8
2017-Jun-22 04:43N 39°57' E 000°02'2 4.7
2017-Jun-22 04:22N 39°57' E 000°04'0 1.2
2017-Jun-22 03:58N 39°57' E 000°04'5 9.9
2017-Jun-22 03:30N 39°59' E 000°10'612.5
2017-Jun-22 03:00N 40°02' E 000°17'612.6
2017-Jun-22 02:30N 40°05' E 000°24'612.6
2017-Jun-22 02:00N 40°09' E 000°31'612.6
2017-Jun-22 01:30N 40°12' E 000°38'612.6
2017-Jun-22 01:00N 40°15' E 000°45'612.6
2017-Jun-22 00:30N 40°19' E 000°52'612.8
2017-Jun-22 00:00N 40°22' E 000°59'712.9
2017-Jun-21 23:30N 40°25' E 001°06'612.8
2017-Jun-21 23:00N 40°29' E 001°14'712.8
2017-Jun-21 22:30N 40°32' E 001°21'612.7
2017-Jun-21 22:00N 40°35' E 001°28'612.9
2017-Jun-21 21:30N 40°39' E 001°34'613.0
2017-Jun-21 21:00N 40°44' E 001°40'613.0
2017-Jun-21 20:30N 40°50' E 001°45'713.1
2017-Jun-21 20:00N 40°55' E 001°50'713.3
2017-Jun-21 19:30N 41°01' E 001°54'612.8
2017-Jun-21 19:00N 41°06' E 001°60'612.9
2017-Jun-21 18:30N 41°11' E 002°05'712.3
2017-Jun-21 17:56N 41°16' E 002°11'4 9.8
2017-Jun-21 17:30N 41°20' E 002°10'0 0.8
2017-Jun-21 17:00N 41°21' E 002°10'0 0.0
2017-Jun-21 16:29N 41°21' E 002°10'0 0.0
2017-Jun-21 16:00N 41°21' E 002°10'0 0.0
2017-Jun-21 13:42N 41°21' E 002°10'0 0.0
2017-Jun-21 13:18N 41°21' E 002°10'0 0.0
2017-Jun-21 12:54N 41°21' E 002°10'0 0.0
2017-Jun-21 12:30N 41°21' E 002°10'0 0.0
2017-Jun-21 12:00N 41°21' E 002°10'0 0.0
2017-Jun-21 11:12N 41°21' E 002°10'0 0.0
2017-Jun-21 10:57N 41°21' E 002°10'0 0.0
2017-Jun-21 00:48N 41°21' E 002°10'0 0.0
2017-Jun-21 00:30N 41°21' E 002°10'0 0.0
2017-Jun-20 23:36N 41°21' E 002°10'0 0.0
2017-Jun-20 23:30N 41°21' E 002°10'0 0.0
2017-Jun-20 22:54N 41°21' E 002°10'0 1.0
2017-Jun-20 22:29N 41°20' E 002°10'3 6.1
2017-Jun-20 22:00N 41°18' E 002°11'612.2
2017-Jun-20 21:30N 41°12' E 002°09'612.9
2017-Jun-20 21:00N 41°06' E 002°05'613.1
2017-Jun-20 20:30N 40°60' E 002°02'713.6
2017-Jun-20 20:00N 40°54' E 001°57'713.6
2017-Jun-20 19:30N 40°48' E 001°53'713.7
2017-Jun-20 19:00N 40°42' E 001°49'713.6
2017-Jun-20 18:30N 40°36' E 001°45'713.6
2017-Jun-20 18:00N 40°30' E 001°41'713.7
2017-Jun-20 17:30N 40°24' E 001°36'1013.6
2017-Jun-20 16:48N 40°15' E 001°30'413.4
2017-Jun-20 16:30N 40°12' E 001°28'713.7
2017-Jun-20 16:00N 40°06' E 001°23'4713.6
2017-Jun-20 12:35N 39°24' E 000°56'312.9
2017-Jun-20 12:21N 39°22' E 000°55'512.8
2017-Jun-20 11:56N 39°17' E 000°51'1513.0
2017-Jun-20 10:45N 39°04' E 000°42'413.4
2017-Jun-20 10:28N 39°00' E 000°39'613.7
2017-Jun-20 10:00N 38°55' E 000°36'713.7
2017-Jun-20 09:28N 38°48' E 000°31'613.3
2017-Jun-20 08:59N 38°43' E 000°27'1113.0
2017-Jun-20 08:09N 38°33' E 000°20'312.9
2017-Jun-20 07:53N 38°31' E 000°18'512.9
2017-Jun-20 07:30N 38°26' E 000°14'712.7
2017-Jun-20 06:57N 38°20' E 000°09'612.5
2017-Jun-20 06:30N 38°16' E 000°05'1112.2
2017-Jun-20 05:38N 38°07' W 000°02'312.1
2017-Jun-20 05:21N 38°04' W 000°04'412.2
2017-Jun-20 05:00N 38°01' W 000°07'612.2
2017-Jun-20 04:29N 37°55' W 000°12'612.6
2017-Jun-20 04:00N 37°50' W 000°16'612.5
2017-Jun-20 03:30N 37°45' W 000°20'612.9
2017-Jun-20 03:00N 37°40' W 000°25'612.7
2017-Jun-20 02:30N 37°34' W 000°29'712.6
2017-Jun-20 01:59N 37°30' W 000°35'612.6
2017-Jun-20 01:30N 37°26' W 000°41'612.5
2017-Jun-20 01:00N 37°21' W 000°46'612.4
2017-Jun-20 00:29N 37°17' W 000°52'912.5
2017-Jun-19 23:47N 37°10' W 000°60'8211.6
2017-Jun-19 16:41N 36°20' W 002°22'312.1
2017-Jun-19 16:28N 36°20' W 002°25'24811.7
2017-Jun-18 19:21N 34°31' W 006°58'613.0
2017-Jun-18 18:51N 34°25' W 007°02'512.7
2017-Jun-18 18:29N 34°21' W 007°05'107 2.2
2017-Jun-16 18:18N 35°52' W 005°57'612.4
2017-Jun-16 17:48N 35°56' W 005°51'  
Track history (hours):
 
Tides and Currents Weather Stations Pressure Air Temp Water Temp Dewpoint Dewpoint Depression Visibility Wind Speed Wind Dir Waves Ship Positions

Asian Empire

Last reported at 2017-Jun-26 17:04 UTC. Time now 2017-Jun-28 07:17 UTC.
Position N 32°24' E 015°16'.

Length 229 m; draft 8.2 m.

Type: Cargo ship. MMSI: 245087096.

Date/timePositionNaut miles runAvg speedWind from/ knotsBaromVisibWave heightAir tempDewpointWater temp
2017-Jun-26 17:04N 32°24' E 015°16'0 0.1
2017-Jun-26 16:58N 32°24' E 015°16'0 0.0
2017-Jun-26 16:25N 32°24' E 015°16'0 0.0
2017-Jun-26 15:55N 32°24' E 015°16'0 0.0
2017-Jun-26 15:28N 32°24' E 015°16'0 0.0
2017-Jun-26 14:58N 32°24' E 015°16'0 0.0
2017-Jun-26 14:28N 32°24' E 015°16'0 0.0
2017-Jun-26 13:28N 32°24' E 015°16'0 0.0
2017-Jun-26 12:58N 32°24' E 015°16'0 0.0
2017-Jun-26 12:28N 32°24' E 015°16'0 0.0
2017-Jun-26 11:58N 32°24' E 015°16'0 0.0
2017-Jun-26 11:04N 32°24' E 015°16'0 0.0
2017-Jun-26 10:58N 32°24' E 015°16'0 0.0
2017-Jun-26 10:25N 32°24' E 015°16'0 0.0
2017-Jun-26 09:58N 32°24' E 015°16'0 0.0
2017-Jun-26 09:01N 32°24' E 015°16'0 0.0
2017-Jun-26 08:58N 32°24' E 015°16'0 0.0
2017-Jun-26 08:28N 32°24' E 015°16'0 0.0
2017-Jun-26 06:29N 32°24' E 015°16'3 5.6
2017-Jun-26 05:59N 32°26' E 015°17'612.4
2017-Jun-26 05:30N 32°32' E 015°16'612.5
2017-Jun-26 05:00N 32°38' E 015°15'612.3
2017-Jun-26 04:30N 32°44' E 015°14'612.3
2017-Jun-26 04:00N 32°51' E 015°14'612.2
2017-Jun-26 03:30N 32°57' E 015°13'612.2
2017-Jun-26 03:00N 33°03' E 015°12'612.3
2017-Jun-26 02:30N 33°09' E 015°11'612.2
2017-Jun-26 02:00N 33°15' E 015°10'612.2
2017-Jun-26 01:30N 33°21' E 015°09'612.2
2017-Jun-26 01:00N 33°27' E 015°08'612.2
2017-Jun-26 00:30N 33°33' E 015°07'612.4
2017-Jun-26 00:00N 33°39' E 015°06'612.4
2017-Jun-25 23:30N 33°45' E 015°05'612.5
2017-Jun-25 23:00N 33°51' E 015°04'612.5
2017-Jun-25 22:30N 33°58' E 015°03'612.5
2017-Jun-25 22:00N 34°04' E 015°02'612.5
2017-Jun-25 21:30N 34°10' E 015°01'612.6
2017-Jun-25 21:00N 34°16' E 014°60'612.5
2017-Jun-25 20:30N 34°22' E 014°59'612.6
2017-Jun-25 20:00N 34°29' E 014°57'612.8
2017-Jun-25 19:30N 34°35' E 014°56'613.0
2017-Jun-25 19:00N 34°41' E 014°56'713.1
2017-Jun-25 18:30N 34°48' E 014°55'612.7
2017-Jun-25 18:00N 34°54' E 014°54'612.6
2017-Jun-25 17:30N 35°00' E 014°53'612.4
2017-Jun-25 17:00N 35°07' E 014°52'612.3
2017-Jun-25 16:30N 35°13' E 014°51'612.5
2017-Jun-25 16:00N 35°19' E 014°50'612.6
2017-Jun-25 15:30N 35°25' E 014°50'612.5
2017-Jun-25 15:00N 35°31' E 014°49'612.5
2017-Jun-25 14:30N 35°38' E 014°48'1212.5
2017-Jun-25 13:30N 35°50' E 014°46'2 4.2
2017-Jun-25 13:00N 35°52' E 014°45'0 0.1
2017-Jun-25 12:29N 35°52' E 014°45'0 0.0
2017-Jun-25 11:59N 35°52' E 014°45'0 0.0
2017-Jun-25 11:26N 35°52' E 014°45'0 0.0
2017-Jun-25 10:59N 35°52' E 014°45'0 0.0
2017-Jun-25 10:29N 35°52' E 014°45'0 0.0
2017-Jun-25 09:59N 35°52' E 014°45'0 0.0
2017-Jun-25 09:29N 35°52' E 014°45'0 0.0
2017-Jun-25 08:59N 35°52' E 014°45'0 0.0
2017-Jun-25 08:29N 35°52' E 014°45'0 0.0
2017-Jun-25 07:59N 35°52' E 014°45'0 0.0
2017-Jun-25 07:29N 35°52' E 014°45'0 0.1
2017-Jun-25 06:59N 35°52' E 014°45'0 0.0
2017-Jun-25 06:29N 35°52' E 014°45'0 0.0
2017-Jun-25 05:59N 35°52' E 014°45'0 0.0
2017-Jun-25 05:29N 35°52' E 014°45'0 0.1
2017-Jun-25 04:59N 35°52' E 014°45'0 0.0
2017-Jun-25 04:26N 35°52' E 014°45'0 0.7
2017-Jun-25 04:00N 35°52' E 014°44'611.5
2017-Jun-25 03:30N 35°56' E 014°39'713.0
2017-Jun-25 03:00N 36°01' E 014°35'612.4
2017-Jun-25 02:30N 36°05' E 014°28'612.7
2017-Jun-25 02:00N 36°07' E 014°21'612.7
2017-Jun-25 01:31N 36°10' E 014°14'612.7
2017-Jun-25 01:00N 36°12' E 014°07'612.9
2017-Jun-25 00:30N 36°15' E 013°60'612.9
2017-Jun-25 00:00N 36°18' E 013°52'612.8
2017-Jun-24 23:31N 36°21' E 013°45'612.8
2017-Jun-24 23:01N 36°24' E 013°38'612.6
2017-Jun-24 22:30N 36°26' E 013°31'612.5
2017-Jun-24 22:00N 36°29' E 013°24'612.4
2017-Jun-24 21:31N 36°31' E 013°17'612.1
2017-Jun-24 21:00N 36°33' E 013°10'612.2
2017-Jun-24 20:31N 36°36' E 013°03'612.3
2017-Jun-24 20:01N 36°39' E 012°56'612.5
2017-Jun-24 19:30N 36°42' E 012°49'612.6
2017-Jun-24 19:00N 36°45' E 012°42'612.5
2017-Jun-24 18:30N 36°48' E 012°35'713.0
2017-Jun-24 18:00N 36°51' E 012°28'713.3
2017-Jun-24 17:30N 36°54' E 012°21'713.0
2017-Jun-24 17:00N 36°57' E 012°13'612.5
2017-Jun-24 16:30N 36°60' E 012°07'612.7
2017-Jun-24 16:00N 37°02' E 011°59'612.6
2017-Jun-24 15:30N 37°05' E 011°52'612.7
2017-Jun-24 15:00N 37°08' E 011°45'1312.7
2017-Jun-24 14:00N 37°14' E 011°31'612.7
2017-Jun-24 13:30N 37°17' E 011°24'612.7
2017-Jun-24 12:59N 37°20' E 011°17'613.0
2017-Jun-24 12:30N 37°22' E 011°09'713.2
2017-Jun-24 12:00N 37°25' E 011°02'713.3
2017-Jun-24 11:30N 37°29' E 010°55'713.3
2017-Jun-24 11:00N 37°33' E 010°48'4513.2
2017-Jun-24 07:34N 37°48' E 009°54'113.4
2017-Jun-24 07:30N 37°48' E 009°53'713.4
2017-Jun-24 07:00N 37°50' E 009°45'713.4
2017-Jun-24 06:30N 37°51' E 009°36'713.5
2017-Jun-24 06:00N 37°52' E 009°28'713.5
2017-Jun-24 05:30N 37°54' E 009°20'713.6
2017-Jun-24 04:59N 37°55' E 009°11'4013.6
2017-Jun-24 02:01N 38°04' E 008°21'213.4
2017-Jun-24 01:50N 38°05' E 008°18'12012.7
2017-Jun-23 16:22N 38°29' E 005°49'5612.3
2017-Jun-23 11:48N 38°41' E 004°38'312.3
2017-Jun-23 11:31N 38°42' E 004°34'612.3
2017-Jun-23 11:00N 38°43' E 004°26'712.3
2017-Jun-23 10:27N 38°45' E 004°18'712.5
2017-Jun-23 09:54N 38°47' E 004°09'512.6
2017-Jun-23 09:30N 38°48' E 004°03'612.6
2017-Jun-23 09:00N 38°49' E 003°55'612.6
2017-Jun-23 08:30N 38°50' E 003°47'612.5
2017-Jun-23 08:00N 38°51' E 003°39'612.5
2017-Jun-23 07:30N 38°53' E 003°32'612.5
2017-Jun-23 07:00N 38°54' E 003°24'612.5
2017-Jun-23 06:30N 38°55' E 003°16'612.7
2017-Jun-23 06:00N 38°57' E 003°08'612.7
2017-Jun-23 05:30N 38°58' E 002°60'612.4
2017-Jun-23 05:00N 38°59' E 002°52'612.3
2017-Jun-23 04:30N 39°01' E 002°44'612.3
2017-Jun-23 04:01N 39°02' E 002°37'612.6
2017-Jun-23 03:30N 39°03' E 002°29'612.5
2017-Jun-23 03:00N 39°04' E 002°21'612.3
2017-Jun-23 02:30N 39°06' E 002°13'612.6
2017-Jun-23 02:00N 39°07' E 002°05'713.1
2017-Jun-23 01:30N 39°08' E 001°57'713.1
2017-Jun-23 01:00N 39°10' E 001°49'612.9
2017-Jun-23 00:30N 39°13' E 001°41'612.5
2017-Jun-22 23:59N 39°16' E 001°34'612.2
2017-Jun-22 23:30N 39°18' E 001°27'3812.2
2017-Jun-22 20:23N 39°37' E 000°44'612.1
2017-Jun-22 19:52N 39°40' E 000°37'611.9
2017-Jun-22 19:22N 39°43' E 000°31'26 1.8
2017-Jun-22 04:43N 39°57' E 000°02'2 4.7
2017-Jun-22 04:22N 39°57' E 000°04'0 1.2
2017-Jun-22 03:58N 39°57' E 000°04'5 9.9
2017-Jun-22 03:30N 39°59' E 000°10'612.5
2017-Jun-22 03:00N 40°02' E 000°17'612.6
2017-Jun-22 02:30N 40°05' E 000°24'612.6
2017-Jun-22 02:00N 40°09' E 000°31'612.6
2017-Jun-22 01:30N 40°12' E 000°38'612.6
2017-Jun-22 01:00N 40°15' E 000°45'612.6
2017-Jun-22 00:30N 40°19' E 000°52'612.8
2017-Jun-22 00:00N 40°22' E 000°59'712.9
2017-Jun-21 23:30N 40°25' E 001°06'612.8
2017-Jun-21 23:00N 40°29' E 001°14'712.8
2017-Jun-21 22:30N 40°32' E 001°21'612.7
2017-Jun-21 22:00N 40°35' E 001°28'612.9
2017-Jun-21 21:30N 40°39' E 001°34'613.0
2017-Jun-21 21:00N 40°44' E 001°40'613.0
2017-Jun-21 20:30N 40°50' E 001°45'713.1
2017-Jun-21 20:00N 40°55' E 001°50'713.3
2017-Jun-21 19:30N 41°01' E 001°54'612.8
2017-Jun-21 19:00N 41°06' E 001°60'612.9
2017-Jun-21 18:30N 41°11' E 002°05'712.3
2017-Jun-21 17:56N 41°16' E 002°11'4 9.8
2017-Jun-21 17:30N 41°20' E 002°10'0 0.8
2017-Jun-21 17:00N 41°21' E 002°10'0 0.0
2017-Jun-21 16:29N 41°21' E 002°10'0 0.0
2017-Jun-21 16:00N 41°21' E 002°10'0 0.0
2017-Jun-21 13:42N 41°21' E 002°10'0 0.0
2017-Jun-21 13:18N 41°21' E 002°10'0 0.0
2017-Jun-21 12:54N 41°21' E 002°10'0 0.0
2017-Jun-21 12:30N 41°21' E 002°10'0 0.0
2017-Jun-21 12:00N 41°21' E 002°10'0 0.0
2017-Jun-21 11:12N 41°21' E 002°10'0 0.0
2017-Jun-21 10:57N 41°21' E 002°10'0 0.0
2017-Jun-21 00:48N 41°21' E 002°10'0 0.0
2017-Jun-21 00:30N 41°21' E 002°10'0 0.0
2017-Jun-20 23:36N 41°21' E 002°10'0 0.0
2017-Jun-20 23:30N 41°21' E 002°10'0 0.0
2017-Jun-20 22:54N 41°21' E 002°10'0 1.0
2017-Jun-20 22:29N 41°20' E 002°10'3 6.1
2017-Jun-20 22:00N 41°18' E 002°11'612.2
2017-Jun-20 21:30N 41°12' E 002°09'612.9
2017-Jun-20 21:00N 41°06' E 002°05'613.1
2017-Jun-20 20:30N 40°60' E 002°02'713.6
2017-Jun-20 20:00N 40°54' E 001°57'713.6
2017-Jun-20 19:30N 40°48' E 001°53'713.7
2017-Jun-20 19:00N 40°42' E 001°49'713.6
2017-Jun-20 18:30N 40°36' E 001°45'713.6
2017-Jun-20 18:00N 40°30' E 001°41'713.7
2017-Jun-20 17:30N 40°24' E 001°36'1013.6
2017-Jun-20 16:48N 40°15' E 001°30'413.4
2017-Jun-20 16:30N 40°12' E 001°28'713.7
2017-Jun-20 16:00N 40°06' E 001°23'4713.6
2017-Jun-20 12:35N 39°24' E 000°56'312.9
2017-Jun-20 12:21N 39°22' E 000°55'512.8
2017-Jun-20 11:56N 39°17' E 000°51'1513.0
2017-Jun-20 10:45N 39°04' E 000°42'413.4
2017-Jun-20 10:28N 39°00' E 000°39'613.7
2017-Jun-20 10:00N 38°55' E 000°36'713.7
2017-Jun-20 09:28N 38°48' E 000°31'613.3
2017-Jun-20 08:59N 38°43' E 000°27'1113.0
2017-Jun-20 08:09N 38°33' E 000°20'312.9
2017-Jun-20 07:53N 38°31' E 000°18'512.9
2017-Jun-20 07:30N 38°26' E 000°14'712.7
2017-Jun-20 06:57N 38°20' E 000°09'612.5
2017-Jun-20 06:30N 38°16' E 000°05'1112.2
2017-Jun-20 05:38N 38°07' W 000°02'312.1
2017-Jun-20 05:21N 38°04' W 000°04'412.2
2017-Jun-20 05:00N 38°01' W 000°07'612.2
2017-Jun-20 04:29N 37°55' W 000°12'612.6
2017-Jun-20 04:00N 37°50' W 000°16'612.5
2017-Jun-20 03:30N 37°45' W 000°20'612.9
2017-Jun-20 03:00N 37°40' W 000°25'612.7
2017-Jun-20 02:30N 37°34' W 000°29'712.6
2017-Jun-20 01:59N 37°30' W 000°35'612.6
2017-Jun-20 01:30N 37°26' W 000°41'612.5
2017-Jun-20 01:00N 37°21' W 000°46'612.4
2017-Jun-20 00:29N 37°17' W 000°52'912.5
2017-Jun-19 23:47N 37°10' W 000°60'8211.6
2017-Jun-19 16:41N 36°20' W 002°22'312.1
2017-Jun-19 16:28N 36°20' W 002°25'24811.7
2017-Jun-18 19:21N 34°31' W 006°58'613.0
2017-Jun-18 18:51N 34°25' W 007°02'512.7
2017-Jun-18 18:29N 34°21' W 007°05'107 2.2
2017-Jun-16 18:18N 35°52' W 005°57'612.4
2017-Jun-16 17:48N 35°56' W 005°51'  

Dump ship's entire track history